Time;durP1;ratioP1;P1;durP2;ratioP2;P2;SDS_P1;SDS_P2;PMS_P1;PMS_P2;Temp;Humidity;BMP_temperature;BMP_pressure;BME280_temperature;BME280_humidity;BME280_pressure;Samples;Min_cycle;Max_cycle;Signal;HPM_P1;HPM_P2
2023/05/15 00:03:27;;;;;;;2.70;2.22;;;16.50;92.30;;;;;;10214798;28;20466;-62
2023/05/15 00:08:18;;;;;;;3.20;2.08;;;16.60;92.40;;;;;;10217367;28;20024;-64
2023/05/15 00:13:08;;;;;;;3.63;1.85;;;16.40;92.50;;;;;;10211353;28;20032;-62
2023/05/15 00:18:00;;;;;;;2.97;2.28;;;16.20;93.00;;;;;;10213730;28;20233;-62
2023/05/15 00:22:51;;;;;;;3.03;2.35;;;16.20;93.20;;;;;;10217390;27;20126;-64
2023/05/15 00:27:41;;;;;;;4.00;2.40;;;16.20;93.20;;;;;;10214525;28;20038;-63
2023/05/15 00:32:32;;;;;;;4.60;2.47;;;16.20;93.40;;;;;;10201304;28;20032;-66
2023/05/15 00:37:23;;;;;;;3.95;2.50;;;16.20;93.70;;;;;;10220853;28;20036;-72
2023/05/15 00:42:15;;;;;;;4.47;2.55;;;16.00;93.90;;;;;;10201264;28;20118;-68
2023/05/15 00:47:06;;;;;;;2.22;1.92;;;15.80;94.40;;;;;;10209917;28;20048;-69
2023/05/15 00:52:00;;;;;;;5.90;2.65;;;15.60;94.70;;;;;;10220420;28;20043;-69
2023/05/15 00:56:54;;;;;;;3.67;1.90;;;15.60;94.90;;;;;;10218851;28;20030;-63
2023/05/15 01:01:45;;;;;;;2.35;1.95;;;15.70;95.00;;;;;;10216768;28;20609;-63
2023/05/15 01:06:36;;;;;;;3.90;1.88;;;15.60;95.20;;;;;;10232894;27;20024;-62
2023/05/15 01:11:34;;;;;;;4.10;2.50;;;15.50;95.30;;;;;;10226173;28;20047;-67
2023/05/15 01:16:25;;;;;;;4.90;2.10;;;15.40;95.60;;;;;;10226422;28;20019;-62
2023/05/15 01:21:35;;;;;;;3.97;2.30;;;15.20;95.90;;;;;;10219419;27;20046;-64
2023/05/15 01:26:47;;;;;;;4.03;2.20;;;15.40;96.10;;;;;;10206755;28;20020;-64
2023/05/15 01:31:42;;;;;;;2.65;2.00;;;15.40;96.20;;;;;;10225716;28;20055;-64
2023/05/15 01:36:43;;;;;;;1.63;1.50;;;15.50;96.20;;;;;;10228063;27;20366;-67
2023/05/15 01:41:53;;;;;;;2.90;1.85;;;15.60;96.30;;;;;;10226321;28;20110;-62
2023/05/15 01:46:48;;;;;;;3.05;1.70;;;15.60;96.40;;;;;;10219274;27;20081;-69
2023/05/15 01:51:40;;;;;;;3.72;2.20;;;15.50;96.50;;;;;;10229833;27;20031;-63
2023/05/15 01:56:32;;;;;;;3.35;2.47;;;15.50;96.70;;;;;;10224393;28;20024;-65
2023/05/15 02:01:24;;;;;;;2.63;1.95;;;15.30;97.20;;;;;;10225514;27;20429;-63
2023/05/15 02:06:15;;;;;;;2.97;2.63;;;15.40;97.00;;;;;;10224436;27;20173;-70
2023/05/15 02:11:07;;;;;;;3.03;2.00;;;15.20;97.20;;;;;;10224061;28;20174;-69
2023/05/15 02:15:58;;;;;;;2.85;2.08;;;15.20;97.30;;;;;;10202001;27;20428;-66
2023/05/15 02:20:48;;;;;;;3.70;2.30;;;15.30;97.50;;;;;;10216697;28;20111;-69
2023/05/15 02:26:01;;;;;;;6.65;2.60;;;15.20;97.60;;;;;;10182899;28;20439;-65
2023/05/15 02:31:00;;;;;;;2.97;2.17;;;15.10;97.80;;;;;;10228716;27;20035;-64
2023/05/15 02:35:57;;;;;;;2.65;2.30;;;15.10;98.00;;;;;;10222719;28;20015;-71
2023/05/15 02:40:50;;;;;;;5.15;2.20;;;15.00;98.20;;;;;;10224784;28;20383;-63
2023/05/15 02:45:41;;;;;;;3.30;2.28;;;14.90;98.20;;;;;;10214950;28;20107;-63
2023/05/15 02:50:32;;;;;;;4.00;2.05;;;14.90;98.30;;;;;;10220577;28;20063;-63
2023/05/15 02:55:23;;;;;;;3.70;1.95;;;14.90;98.50;;;;;;10203966;28;20415;-62
2023/05/15 03:00:14;;;;;;;6.97;2.40;;;14.90;98.60;;;;;;10189170;28;20287;-65
2023/05/15 03:05:05;;;;;;;4.05;2.60;;;15.00;98.70;;;;;;10228473;27;20039;-62
2023/05/15 03:09:56;;;;;;;3.95;2.45;;;14.90;98.80;;;;;;10220001;28;20023;-65
2023/05/15 03:14:47;;;;;;;3.03;2.10;;;15.00;99.20;;;;;;10228438;27;20039;-62
2023/05/15 03:19:37;;;;;;;3.45;2.25;;;14.90;99.10;;;;;;10197248;28;20039;-65
2023/05/15 03:24:28;;;;;;;2.72;2.05;;;14.90;99.40;;;;;;10214977;28;20020;-64
2023/05/15 03:29:19;;;;;;;3.65;2.35;;;15.00;99.50;;;;;;10202113;28;20026;-70
2023/05/15 03:34:09;;;;;;;2.53;2.15;;;14.90;99.50;;;;;;10221781;28;20348;-61
2023/05/15 03:39:00;;;;;;;3.70;2.40;;;14.90;99.70;;;;;;10218644;28;20481;-67
2023/05/15 03:43:50;;;;;;;5.10;2.63;;;14.80;99.70;;;;;;10207100;28;20436;-61
2023/05/15 03:48:41;;;;;;;3.97;2.08;;;14.80;99.80;;;;;;10205763;28;20036;-61
2023/05/15 03:53:32;;;;;;;3.25;2.10;;;14.80;99.90;;;;;;10220267;27;20110;-66
2023/05/15 03:58:22;;;;;;;5.70;2.97;;;14.80;99.90;;;;;;10222598;27;20039;-62
2023/05/15 04:03:13;;;;;;;2.97;2.30;;;14.80;99.90;;;;;;10198508;28;20115;-63
2023/05/15 04:08:04;;;;;;;3.05;2.10;;;14.70;99.90;;;;;;10220013;27;20493;-66
2023/05/15 04:12:55;;;;;;;3.72;2.35;;;14.80;99.90;;;;;;10219487;28;20535;-65
2023/05/15 04:17:47;;;;;;;3.30;2.10;;;15.00;99.90;;;;;;10219093;28;20058;-64
2023/05/15 04:22:37;;;;;;;4.00;2.22;;;15.00;99.90;;;;;;10213300;28;20024;-64
2023/05/15 04:27:28;;;;;;;3.58;2.33;;;15.00;99.90;;;;;;10214393;28;20020;-71
2023/05/15 04:32:19;;;;;;;4.55;2.63;;;14.90;99.90;;;;;;10222731;28;20511;-67
2023/05/15 04:37:11;;;;;;;2.92;2.22;;;14.80;99.90;;;;;;10220656;28;20030;-67
2023/05/15 04:42:01;;;;;;;3.08;2.20;;;14.90;99.90;;;;;;10227603;28;20051;-62
2023/05/15 04:46:52;;;;;;;3.15;2.03;;;15.10;99.90;;;;;;10226613;28;20028;-62
2023/05/15 04:51:42;;;;;;;5.45;2.30;;;15.10;99.90;;;;;;10239669;27;20108;-68
2023/05/15 04:56:33;;;;;;;3.28;2.22;;;15.20;99.90;;;;;;10214468;28;20034;-65
2023/05/15 05:01:24;;;;;;;3.95;3.10;;;15.20;99.90;;;;;;10208182;28;20050;-70
2023/05/15 05:06:15;;;;;;;4.05;1.95;;;15.10;99.90;;;;;;10225517;27;20032;-69
2023/05/15 05:11:06;;;;;;;2.97;2.13;;;15.10;99.90;;;;;;10205972;28;20024;-63
2023/05/15 05:15:56;;;;;;;3.33;2.10;;;15.00;99.90;;;;;;10226544;28;20024;-62
2023/05/15 05:20:48;;;;;;;3.35;2.33;;;15.00;99.90;;;;;;10219865;27;20028;-65
2023/05/15 05:25:39;;;;;;;4.82;3.00;;;15.10;99.90;;;;;;10220665;28;20061;-71
2023/05/15 05:30:30;;;;;;;3.72;2.10;;;15.00;99.90;;;;;;10226644;28;20190;-73
2023/05/15 05:35:20;;;;;;;25.17;2.97;;;15.00;99.90;;;;;;10235514;27;20026;-71
2023/05/15 05:40:11;;;;;;;4.35;2.65;;;14.90;99.90;;;;;;10229142;28;20016;-70
2023/05/15 05:45:02;;;;;;;4.10;2.83;;;15.00;99.90;;;;;;10221505;28;20281;-77
2023/05/15 05:49:53;;;;;;;3.17;2.67;;;15.20;99.90;;;;;;10219291;28;20426;-67
2023/05/15 05:54:46;;;;;;;3.85;2.85;;;15.40;99.90;;;;;;10225410;28;20054;-72
2023/05/15 05:59:37;;;;;;;4.50;2.55;;;15.50;99.90;;;;;;10224644;28;20051;-72
2023/05/15 06:04:28;;;;;;;3.28;2.15;;;15.60;99.90;;;;;;10227696;27;20092;-75
2023/05/15 06:09:18;;;;;;;4.50;2.63;;;15.80;99.90;;;;;;10204938;28;20143;-66
2023/05/15 06:14:09;;;;;;;5.25;2.67;;;15.80;99.90;;;;;;10225087;27;20092;-63
2023/05/15 06:18:59;;;;;;;4.45;2.90;;;16.20;99.90;;;;;;10208844;28;20045;-67
2023/05/15 06:23:50;;;;;;;4.20;2.60;;;16.50;99.90;;;;;;10223007;28;20039;-69
2023/05/15 06:28:41;;;;;;;3.35;2.63;;;16.50;99.90;;;;;;10224769;27;20028;-63
2023/05/15 06:33:31;;;;;;;5.72;3.08;;;16.50;99.90;;;;;;10223714;28;20036;-63
2023/05/15 06:38:22;;;;;;;3.38;2.17;;;16.60;99.90;;;;;;10228323;27;20026;-66
2023/05/15 06:43:13;;;;;;;4.53;2.65;;;16.50;99.90;;;;;;10228662;27;20393;-63
2023/05/15 06:48:04;;;;;;;4.28;2.20;;;16.50;99.90;;;;;;10223348;28;20077;-71
2023/05/15 06:52:54;;;;;;;2.90;2.28;;;16.60;99.90;;;;;;10205279;28;20085;-76
2023/05/15 06:57:45;;;;;;;3.13;2.40;;;16.60;99.90;;;;;;10232090;27;20123;-65
2023/05/15 07:02:36;;;;;;;5.75;2.85;;;16.90;99.90;;;;;;10202253;28;20179;-66
2023/05/15 07:07:26;;;;;;;3.88;2.28;;;17.00;99.90;;;;;;10223242;28;20080;-69
2023/05/15 07:12:17;;;;;;;3.22;2.47;;;17.00;99.90;;;;;;10228260;27;20064;-63
2023/05/15 07:17:07;;;;;;;3.55;2.60;;;17.20;99.90;;;;;;10227682;27;20016;-70
2023/05/15 07:21:58;;;;;;;4.03;2.78;;;17.50;99.90;;;;;;10221757;28;20026;-62
2023/05/15 07:26:49;;;;;;;4.95;3.20;;;17.80;99.90;;;;;;10204812;27;20310;-63
2023/05/15 07:31:43;;;;;;;2.53;1.92;;;18.00;99.90;;;;;;10222369;28;20032;-66
2023/05/15 07:36:33;;;;;;;4.40;2.78;;;17.90;99.90;;;;;;10221368;28;20358;-63
2023/05/15 07:41:24;;;;;;;3.90;2.70;;;18.10;99.90;;;;;;10230240;27;20031;-62
2023/05/15 07:46:15;;;;;;;7.03;4.32;;;18.40;99.90;;;;;;10214355;28;20026;-62
2023/05/15 07:51:06;;;;;;;6.35;2.38;;;18.40;99.90;;;;;;10221234;28;20296;-65
2023/05/15 07:55:56;;;;;;;3.90;2.20;;;18.20;99.90;;;;;;10224088;27;20095;-64
2023/05/15 08:00:47;;;;;;;2.97;2.00;;;18.30;99.90;;;;;;10220396;28;20051;-63
2023/05/15 08:05:38;;;;;;;3.22;2.28;;;18.50;99.90;;;;;;10217922;28;20102;-64
2023/05/15 08:10:29;;;;;;;2.85;2.28;;;18.20;99.90;;;;;;10223332;27;20039;-63
2023/05/15 08:15:20;;;;;;;3.10;2.28;;;18.20;99.90;;;;;;10219491;28;20047;-62
2023/05/15 08:20:11;;;;;;;3.88;2.80;;;18.10;99.80;;;;;;10217837;28;20073;-62
2023/05/15 08:25:05;;;;;;;4.07;2.58;;;18.10;99.70;;;;;;10230315;27;20046;-62
2023/05/15 08:29:56;;;;;;;3.95;2.90;;;18.20;99.40;;;;;;10219633;28;20027;-63
2023/05/15 08:34:47;;;;;;;4.20;2.58;;;17.80;99.60;;;;;;10222734;28;20396;-67
2023/05/15 08:39:37;;;;;;;4.20;2.75;;;17.90;99.40;;;;;;10219131;28;20096;-63
2023/05/15 08:44:29;;;;;;;3.53;2.97;;;18.10;99.20;;;;;;10201237;28;20451;-63
2023/05/15 08:49:45;;;;;;;3.85;2.58;;;18.00;99.20;;;;;;10204792;28;20170;-63
2023/05/15 08:54:36;;;;;;;3.63;2.80;;;18.10;99.20;;;;;;10221420;28;20058;-68
2023/05/15 08:59:28;;;;;;;4.20;2.92;;;18.10;99.10;;;;;;10201262;28;20120;-64
2023/05/15 09:04:18;;;;;;;3.95;2.50;;;17.90;99.20;;;;;;10224553;28;20219;-62
2023/05/15 09:09:12;;;;;;;5.22;2.58;;;18.10;99.10;;;;;;10219722;28;20403;-63
2023/05/15 09:14:03;;;;;;;4.00;3.00;;;18.20;99.00;;;;;;10218920;28;20032;-62
2023/05/15 09:18:54;;;;;;;4.63;2.75;;;18.40;98.90;;;;;;10219757;28;20391;-63
2023/05/15 09:23:45;;;;;;;3.38;2.35;;;18.30;98.70;;;;;;10218575;28;20030;-63
2023/05/15 09:28:35;;;;;;;3.33;2.53;;;18.20;98.70;;;;;;10203370;28;20027;-63
2023/05/15 09:33:31;;;;;;;4.88;3.10;;;18.10;98.70;;;;;;10211438;27;20039;-62
2023/05/15 09:38:21;;;;;;;;;;;18.30;98.50;;;;;;10226604;28;20024;-62
2023/05/15 09:43:12;;;;;;;5.10;2.90;;;18.40;98.30;;;;;;10207508;28;19911;-66
2023/05/15 09:48:06;;;;;;;5.40;3.30;;;18.50;98.30;;;;;;10223133;28;20388;-62
2023/05/15 09:52:58;;;;;;;6.38;3.22;;;18.80;98.10;;;;;;10224856;28;20555;-62
2023/05/15 09:58:12;;;;;;;3.90;2.70;;;19.10;97.90;;;;;;10224959;28;20031;-62
2023/05/15 10:03:05;;;;;;;3.67;2.70;;;19.10;97.70;;;;;;10223791;27;20037;-64
2023/05/15 10:07:56;;;;;;;3.97;2.63;;;19.10;97.70;;;;;;10227959;27;20089;-62
2023/05/15 10:12:49;;;;;;;3.63;2.28;;;19.20;97.60;;;;;;10209751;27;20051;-63
2023/05/15 10:17:42;;;;;;;4.30;2.72;;;19.40;97.40;;;;;;10220500;28;20102;-61
2023/05/15 10:22:37;;;;;;;6.68;2.67;;;19.40;97.10;;;;;;10225039;28;20023;-67
2023/05/15 10:27:29;;;;;;;5.72;2.72;;;19.50;97.00;;;;;;10226213;27;20602;-63
2023/05/15 10:32:20;;;;;;;4.88;3.05;;;19.60;96.70;;;;;;10230612;27;20061;-64
2023/05/15 10:37:12;;;;;;;18.08;3.83;;;19.50;96.80;;;;;;10224728;28;20383;-64
2023/05/15 10:42:04;;;;;;;4.43;2.22;;;19.80;96.50;;;;;;10225097;27;20024;-67
2023/05/15 10:46:54;;;;;;;4.75;3.00;;;20.10;96.10;;;;;;10213262;28;20192;-74
2023/05/15 10:51:45;;;;;;;4.18;2.78;;;20.40;95.90;;;;;;10223297;28;20235;-66
2023/05/15 10:56:37;;;;;;;4.30;3.10;;;20.30;95.60;;;;;;10201678;28;20390;-63
2023/05/15 11:01:30;;;;;;;4.90;2.97;;;20.40;95.40;;;;;;10223284;28;20048;-64
2023/05/15 11:06:29;;;;;;;5.72;3.22;;;20.60;95.20;;;;;;10204682;27;20423;-63
2023/05/15 11:11:55;;;;;;;3.47;3.03;;;20.90;94.90;;;;;;10218809;28;20063;-65
2023/05/15 11:16:52;;;;;;;3.30;2.95;;;21.10;94.40;;;;;;10212459;28;20632;-64
2023/05/15 11:21:45;;;;;;;4.10;2.90;;;21.30;94.40;;;;;;10215076;28;20108;-65
2023/05/15 11:26:41;;;;;;;4.88;3.38;;;21.70;94.00;;;;;;10232224;27;20027;-66
2023/05/15 11:31:35;;;;;;;4.18;3.05;;;21.70;94.00;;;;;;10225356;28;20277;-63
2023/05/15 11:36:28;;;;;;;6.17;3.97;;;21.50;93.80;;;;;;10205332;28;20913;-64
2023/05/15 11:41:20;;;;;;;5.35;3.22;;;21.00;94.00;;;;;;10206357;28;20403;-69
2023/05/15 11:46:13;;;;;;;4.05;2.88;;;21.00;93.80;;;;;;10193253;28;20033;-68
2023/05/15 11:51:04;;;;;;;3.50;3.20;;;21.20;93.60;;;;;;10220654;28;20032;-66
2023/05/15 11:55:55;;;;;;;7.22;2.80;;;21.10;93.50;;;;;;10222527;27;20375;-73
2023/05/15 12:00:48;;;;;;;4.40;2.50;;;21.10;93.40;;;;;;10196204;28;20051;-73
2023/05/15 12:05:40;;;;;;;3.78;2.45;;;20.60;93.50;;;;;;10221722;27;20123;-70
2023/05/15 12:10:30;;;;;;;4.15;2.25;;;20.00;93.90;;;;;;10189791;28;20497;-74
2023/05/15 12:15:21;;;;;;;4.60;2.42;;;19.80;94.10;;;;;;10217651;28;20023;-63
2023/05/15 12:20:17;;;;;;;2.78;2.28;;;19.40;94.20;;;;;;10213033;28;20027;-75
2023/05/15 12:25:10;;;;;;;2.60;2.05;;;19.20;94.40;;;;;;10207929;28;20024;-70
2023/05/15 12:30:02;;;;;;;3.63;2.47;;;19.30;94.40;;;;;;10220799;28;20457;-65
2023/05/15 12:34:53;;;;;;;3.38;2.60;;;19.40;94.40;;;;;;10227665;28;20059;-64
2023/05/15 12:39:55;;;;;;;3.55;2.40;;;19.70;94.30;;;;;;10219903;28;20034;-74
2023/05/15 12:44:48;;;;;;;4.35;2.45;;;19.80;94.30;;;;;;10214779;28;20019;-63
2023/05/15 12:49:40;;;;;;;4.53;2.40;;;19.70;94.60;;;;;;10231808;28;20514;-66
2023/05/15 12:54:39;;;;;;;4.13;2.33;;;19.20;94.30;;;;;;10219519;28;20096;-63
2023/05/15 12:59:30;;;;;;;4.35;2.90;;;18.60;95.10;;;;;;10220262;28;20505;-71
2023/05/15 13:04:21;;;;;;;5.13;3.28;;;17.60;95.30;;;;;;10227042;28;20024;-69
2023/05/15 13:09:12;;;;;;;5.57;3.00;;;17.00;96.90;;;;;;10228189;28;20031;-66
2023/05/15 13:14:09;;;;;;;3.63;2.50;;;16.60;97.40;;;;;;10219099;28;20176;-67
2023/05/15 13:19:00;;;;;;;8.18;3.38;;;16.50;98.10;;;;;;10211756;28;20095;-70
2023/05/15 13:23:51;;;;;;;4.43;2.88;;;16.80;98.20;;;;;;10227389;28;20055;-72
2023/05/15 13:28:42;;;;;;;4.70;2.85;;;16.90;98.80;;;;;;10226234;28;20031;-68
2023/05/15 13:33:34;;;;;;;3.58;2.80;;;16.90;99.40;;;;;;10229021;27;20028;-64
2023/05/15 13:38:25;;;;;;;4.68;2.63;;;17.10;99.80;;;;;;10226076;28;20102;-64
2023/05/15 13:43:15;;;;;;;3.45;2.83;;;17.40;99.90;;;;;;10226135;28;20578;-62
2023/05/15 13:48:06;;;;;;;2.28;2.08;;;18.00;99.90;;;;;;10232494;27;20112;-62
2023/05/15 13:52:56;;;;;;;4.05;2.72;;;18.60;99.90;;;;;;10206843;28;20060;-62
2023/05/15 13:57:47;;;;;;;3.22;2.85;;;19.10;99.90;;;;;;10225425;28;20035;-61
2023/05/15 14:02:42;;;;;;;3.08;2.78;;;19.20;99.90;;;;;;10229467;27;20047;-65
2023/05/15 14:07:33;;;;;;;4.28;3.15;;;19.20;99.90;;;;;;10225420;28;20027;-62
2023/05/15 14:12:24;;;;;;;2.92;2.15;;;19.20;99.90;;;;;;10214674;27;20055;-75
2023/05/15 14:17:15;;;;;;;2.97;2.30;;;19.20;99.90;;;;;;10224063;27;20393;-63
2023/05/15 14:22:06;;;;;;;2.53;2.08;;;19.00;99.90;;;;;;10221430;28;20024;-73
2023/05/15 14:26:56;;;;;;;2.28;1.85;;;19.00;99.90;;;;;;10232581;27;20109;-71
2023/05/15 14:31:47;;;;;;;2.28;2.08;;;19.00;99.80;;;;;;10227977;27;20052;-66
2023/05/15 14:36:38;;;;;;;2.33;2.10;;;19.40;99.30;;;;;;10224412;28;20432;-72
2023/05/15 14:41:29;;;;;;;3.63;2.47;;;19.70;99.00;;;;;;10223584;28;20045;-66
2023/05/15 14:46:19;;;;;;;3.40;2.47;;;19.70;98.90;;;;;;10223368;28;20497;-66
2023/05/15 14:51:10;;;;;;;3.15;2.40;;;19.70;99.00;;;;;;10223695;28;20452;-63
2023/05/15 14:56:00;;;;;;;3.05;2.25;;;19.60;99.00;;;;;;10205142;28;20028;-65
2023/05/15 15:00:51;;;;;;;3.42;2.42;;;19.30;98.90;;;;;;10222687;28;20457;-61
2023/05/15 15:05:42;;;;;;;5.60;2.92;;;19.40;98.80;;;;;;10223151;28;20036;-69
2023/05/15 15:10:35;;;;;;;4.00;2.35;;;19.20;98.70;;;;;;10210172;28;20031;-76
2023/05/15 15:15:26;;;;;;;3.35;2.38;;;19.20;98.70;;;;;;10219005;28;20106;-77
2023/05/15 15:20:20;;;;;;;2.97;2.53;;;19.30;98.60;;;;;;10214584;28;20508;-80
2023/05/15 15:25:11;;;;;;;3.73;2.63;;;19.70;98.40;;;;;;10207570;27;20031;-78
2023/05/15 15:30:06;;;;;;;3.70;2.63;;;20.00;98.20;;;;;;10223125;28;20035;-73
2023/05/15 15:34:57;;;;;;;7.05;2.97;;;20.10;98.00;;;;;;10210255;28;20061;-63
2023/05/15 15:39:48;;;;;;;2.95;2.38;;;19.80;98.20;;;;;;10228463;27;20016;-63
2023/05/15 15:44:38;;;;;;;6.82;3.58;;;19.90;98.10;;;;;;10220007;28;20034;-62
2023/05/15 15:49:30;;;;;;;5.78;4.10;;;20.70;97.60;;;;;;10215648;28;20378;-61
2023/05/15 15:54:20;;;;;;;3.08;2.65;;;20.80;97.50;;;;;;10232906;27;20439;-64
2023/05/15 15:59:11;;;;;;;7.78;6.00;;;21.80;96.80;;;;;;10202087;28;20076;-68
2023/05/15 16:04:02;;;;;;;6.43;3.60;;;22.70;96.10;;;;;;10220303;28;20035;-63
2023/05/15 16:08:52;;;;;;;12.23;6.32;;;22.00;96.60;;;;;;10223999;27;20088;-63
2023/05/15 16:13:43;;;;;;;6.75;4.20;;;21.60;96.70;;;;;;10220306;28;20024;-68
2023/05/15 16:18:37;;;;;;;3.83;2.78;;;21.60;96.50;;;;;;10216644;28;20028;-63
2023/05/15 16:23:31;;;;;;;7.57;5.95;;;22.20;95.80;;;;;;10208096;28;20035;-62
2023/05/15 16:28:22;;;;;;;5.78;4.32;;;23.00;94.90;;;;;;10182316;28;20043;-64
2023/05/15 16:33:19;;;;;;;4.82;3.50;;;21.80;95.80;;;;;;10218882;28;20050;-65
2023/05/15 16:38:10;;;;;;;4.40;2.90;;;21.30;96.10;;;;;;10219264;28;20135;-63
2023/05/15 16:43:00;;;;;;;3.70;2.70;;;21.00;96.00;;;;;;10219271;28;20127;-63
2023/05/15 16:47:51;;;;;;;3.40;2.83;;;21.00;95.90;;;;;;10203930;28;20436;-62
2023/05/15 16:52:46;;;;;;;5.03;2.88;;;21.10;95.80;;;;;;10219773;28;20409;-64
2023/05/15 16:57:36;;;;;;;2.90;2.28;;;20.80;95.70;;;;;;10182140;28;20121;-68
2023/05/15 17:02:27;;;;;;;4.65;2.83;;;20.90;95.50;;;;;;10218962;28;20142;-71
2023/05/15 17:07:17;;;;;;;4.72;2.83;;;20.80;95.60;;;;;;10219848;28;20030;-68
2023/05/15 17:12:08;;;;;;;3.78;2.95;;;20.60;95.30;;;;;;10206021;28;20115;-66
2023/05/15 17:16:59;;;;;;;5.88;3.08;;;20.50;95.30;;;;;;10218297;28;20028;-67
2023/05/15 17:21:50;;;;;;;4.72;2.85;;;20.40;95.00;;;;;;10219798;28;20035;-69
2023/05/15 17:26:41;;;;;;;5.22;2.97;;;20.30;94.90;;;;;;10219326;28;20359;-73
2023/05/15 17:31:34;;;;;;;4.63;2.67;;;20.20;94.80;;;;;;10202188;28;20066;-65
2023/05/15 17:36:24;;;;;;;4.45;3.10;;;20.00;94.90;;;;;;10219220;28;20023;-73
2023/05/15 17:41:15;;;;;;;5.05;3.53;;;19.80;94.90;;;;;;10219419;28;20379;-70
2023/05/15 17:46:06;;;;;;;6.80;3.75;;;19.80;94.90;;;;;;10219848;28;20081;-64
2023/05/15 17:50:56;;;;;;;6.65;4.05;;;19.60;94.90;;;;;;10225987;28;20031;-69
2023/05/15 17:55:47;;;;;;;4.90;3.10;;;19.50;95.00;;;;;;10225211;28;20024;-69
2023/05/15 18:00:38;;;;;;;2.85;2.63;;;19.30;95.00;;;;;;10206831;28;20131;-65
2023/05/15 18:05:28;;;;;;;4.95;3.38;;;19.20;95.20;;;;;;10209143;28;20586;-67
2023/05/15 18:10:19;;;;;;;3.92;3.42;;;19.20;95.10;;;;;;10201396;28;20020;-77
2023/05/15 18:15:10;;;;;;;4.03;3.03;;;19.20;95.20;;;;;;10224301;28;20119;-70
2023/05/15 18:20:03;;;;;;;5.13;3.13;;;19.20;95.30;;;;;;10214689;28;20512;-66
2023/05/15 18:24:54;;;;;;;4.43;3.53;;;19.20;95.40;;;;;;10193615;28;20019;-68
2023/05/15 18:29:45;;;;;;;4.82;2.92;;;19.20;95.30;;;;;;10224071;28;20028;-63
2023/05/15 18:34:35;;;;;;;5.20;3.58;;;19.20;95.40;;;;;;10223775;28;20518;-66
2023/05/15 18:39:26;;;;;;;5.97;4.07;;;19.00;95.30;;;;;;10205769;28;20028;-68
2023/05/15 18:44:17;;;;;;;4.95;3.28;;;18.80;95.40;;;;;;10206228;28;20038;-62
2023/05/15 18:49:07;;;;;;;6.18;3.97;;;18.70;95.30;;;;;;10217859;28;20043;-62
2023/05/15 18:53:58;;;;;;;6.85;4.38;;;18.60;95.20;;;;;;10224998;27;20084;-63
2023/05/15 18:58:49;;;;;;;7.15;5.00;;;18.60;95.20;;;;;;10204452;28;20047;-62
2023/05/15 19:03:40;;;;;;;5.22;3.83;;;18.60;95.30;;;;;;10222954;28;20101;-62
2023/05/15 19:08:30;;;;;;;4.28;3.88;;;18.40;95.20;;;;;;10229045;27;20110;-62
2023/05/15 19:13:21;;;;;;;4.15;3.45;;;18.30;95.70;;;;;;10206532;28;20088;-63
2023/05/15 19:18:11;;;;;;;8.73;3.45;;;18.30;95.50;;;;;;10220626;28;20272;-62
2023/05/15 19:23:02;;;;;;;7.15;4.25;;;18.40;95.50;;;;;;10232921;27;20481;-64
2023/05/15 19:27:54;;;;;;;6.40;4.15;;;18.40;95.50;;;;;;10222963;28;20015;-62
2023/05/15 19:32:45;;;;;;;6.35;3.63;;;18.30;95.50;;;;;;10221803;28;20247;-64
2023/05/15 19:37:36;;;;;;;8.80;5.20;;;18.20;95.70;;;;;;10199177;28;20581;-63
2023/05/15 19:42:26;;;;;;;11.05;4.93;;;18.10;95.60;;;;;;10219117;28;20032;-63
2023/05/15 19:47:17;;;;;;;6.95;4.10;;;18.20;95.50;;;;;;10201927;28;20027;-62
2023/05/15 19:52:08;;;;;;;4.93;3.95;;;18.10;95.60;;;;;;10196544;28;20040;-64
2023/05/15 19:57:01;;;;;;;5.75;3.97;;;18.10;95.60;;;;;;10220326;28;20069;-65
2023/05/15 20:01:52;;;;;;;6.40;3.72;;;18.20;95.60;;;;;;10219336;28;20647;-65
2023/05/15 20:06:42;;;;;;;6.20;4.20;;;18.10;95.50;;;;;;10211006;27;20041;-64
2023/05/15 20:11:33;;;;;;;8.43;4.25;;;18.10;95.60;;;;;;10205106;28;20397;-64
2023/05/15 20:16:26;;;;;;;7.63;4.32;;;18.10;95.60;;;;;;10220213;28;20024;-64
2023/05/15 20:21:31;;;;;;;5.95;4.72;;;18.10;95.70;;;;;;10221910;28;20484;-66
2023/05/15 20:26:22;;;;;;;9.30;5.65;;;18.00;95.60;;;;;;10204520;28;20032;-63
2023/05/15 20:31:59;;;;;;;6.25;4.07;;;18.00;95.70;;;;;;10219562;28;20038;-62
2023/05/15 20:36:59;;;;;;;6.00;4.60;;;17.80;96.10;;;;;;10218328;28;20262;-63
2023/05/15 20:41:50;;;;;;;5.95;4.22;;;17.60;96.10;;;;;;10201386;28;20106;-63
2023/05/15 20:46:45;;;;;;;7.25;4.60;;;17.50;96.10;;;;;;10222370;28;20139;-64
2023/05/15 20:51:37;;;;;;;8.23;4.63;;;17.50;96.20;;;;;;10219767;28;20032;-62
2023/05/15 20:56:28;;;;;;;6.85;4.32;;;17.50;96.10;;;;;;10219721;28;20373;-61
2023/05/15 21:01:18;;;;;;;7.68;4.57;;;17.50;96.20;;;;;;10219283;28;20051;-76
2023/05/15 21:06:09;;;;;;;5.15;3.83;;;17.40;96.20;;;;;;10190616;28;20481;-64
2023/05/15 21:11:00;;;;;;;4.93;3.92;;;17.30;96.30;;;;;;10207282;28;20035;-63
2023/05/15 21:15:50;;;;;;;6.25;4.20;;;17.20;96.40;;;;;;10200049;28;20038;-62
2023/05/15 21:20:41;;;;;;;4.18;3.38;;;17.00;96.50;;;;;;10221114;28;20111;-64
2023/05/15 21:25:32;;;;;;;4.63;3.08;;;16.90;96.80;;;;;;10226979;28;20043;-62
2023/05/15 21:30:22;;;;;;;4.63;3.45;;;16.80;96.90;;;;;;10227496;28;20024;-62
2023/05/15 21:35:13;;;;;;;5.22;3.75;;;16.70;97.10;;;;;;10227607;28;20096;-74
2023/05/15 21:40:05;;;;;;;4.70;3.67;;;16.50;97.10;;;;;;10226573;28;20031;-66
2023/05/15 21:44:56;;;;;;;4.90;3.50;;;16.40;97.50;;;;;;10219288;28;20020;-68
2023/05/15 21:49:46;;;;;;;5.07;3.55;;;16.40;97.40;;;;;;10225835;28;20496;-63
2023/05/15 21:54:37;;;;;;;4.47;3.88;;;16.40;97.80;;;;;;10225289;28;20084;-64
2023/05/15 21:59:28;;;;;;;5.30;3.80;;;16.30;97.50;;;;;;10227242;27;20101;-62
2023/05/15 22:04:18;;;;;;;4.70;3.75;;;16.40;97.60;;;;;;10206618;28;20508;-66
2023/05/15 22:09:09;;;;;;;8.95;4.07;;;16.30;97.70;;;;;;10224859;28;20024;-65
2023/05/15 22:13:59;;;;;;;7.22;4.57;;;16.30;97.70;;;;;;10220849;28;20032;-61
2023/05/15 22:18:52;;;;;;;6.32;4.70;;;16.20;97.90;;;;;;10207679;28;20028;-72
2023/05/15 22:23:43;;;;;;;4.53;3.85;;;16.10;98.20;;;;;;10206060;27;20217;-63
2023/05/15 22:28:33;;;;;;;6.55;4.40;;;16.10;98.50;;;;;;10224493;27;20358;-63
2023/05/15 22:33:24;;;;;;;8.07;4.43;;;16.10;98.50;;;;;;10222967;28;20114;-62
2023/05/15 22:38:15;;;;;;;6.70;4.22;;;16.10;98.60;;;;;;10224436;27;20024;-62
2023/05/15 22:43:06;;;;;;;5.60;4.13;;;16.10;98.70;;;;;;10227829;27;20038;-63
2023/05/15 22:47:56;;;;;;;5.95;3.60;;;16.00;98.90;;;;;;10217074;28;20489;-62
2023/05/15 22:52:47;;;;;;;6.18;3.88;;;16.00;99.30;;;;;;10222870;27;20039;-71
2023/05/15 22:57:37;;;;;;;5.82;4.03;;;16.30;99.10;;;;;;10226700;27;20024;-63
2023/05/15 23:02:28;;;;;;;6.53;4.28;;;16.30;99.10;;;;;;10219979;28;20461;-62
2023/05/15 23:07:19;;;;;;;7.00;4.53;;;16.30;99.40;;;;;;10222380;28;20055;-63
2023/05/15 23:12:10;;;;;;;4.65;4.03;;;16.20;99.40;;;;;;10208266;28;20135;-62
2023/05/15 23:17:00;;;;;;;5.28;3.90;;;16.20;99.50;;;;;;10222527;28;20385;-62
2023/05/15 23:21:51;;;;;;;7.35;4.93;;;16.10;99.90;;;;;;10207865;27;20115;-63
2023/05/15 23:26:42;;;;;;;6.15;4.72;;;16.00;99.90;;;;;;10222350;28;20171;-63
2023/05/15 23:31:33;;;;;;;6.00;4.32;;;16.00;99.90;;;;;;10221538;28;20044;-62
2023/05/15 23:36:23;;;;;;;7.43;4.45;;;16.00;99.90;;;;;;10221475;28;20012;-62
2023/05/15 23:41:14;;;;;;;5.90;4.22;;;15.90;99.90;;;;;;10221442;28;20235;-68
2023/05/15 23:46:05;;;;;;;5.70;4.50;;;15.90;99.90;;;;;;10221204;28;20020;-62
2023/05/15 23:50:56;;;;;;;5.00;3.80;;;15.90;99.90;;;;;;10221250;28;20024;-65
2023/05/15 23:55:46;;;;;;;6.45;4.30;;;16.00;99.90;;;;;;10221234;28;20038;-63
